Time;durP1;ratioP1;P1;durP2;ratioP2;P2;SDS_P1;SDS_P2;PMS_P1;PMS_P2;Temp;Humidity;BMP_temperature;BMP_pressure;BME280_temperature;BME280_humidity;BME280_pressure;Samples;Min_cycle;Max_cycle;Signal;HPM_P1;HPM_P2
2022/09/04 00:00:07;;;;;;;8.07;4.53;;;;;;;;;;5027153;28;20273;-66
2022/09/04 00:02:55;;;;;;;9.50;4.80;;;;;;;;;;5025507;28;20199;-67
2022/09/04 00:05:34;;;;;;;7.50;4.67;;;;;;;;;;5042869;28;20712;-67
2022/09/04 00:08:10;;;;;;;8.30;4.97;;;;;;;;;;5029388;28;20194;-66
2022/09/04 00:10:37;;;;;;;7.53;4.60;;;;;;;;;;5031105;28;20209;-66
2022/09/04 00:13:08;;;;;;;8.07;4.37;;;;;;;;;;5048462;28;20274;-67
2022/09/04 00:15:38;;;;;;;7.90;4.57;;;;;;;;;;5046659;28;20897;-67
2022/09/04 00:18:06;;;;;;;9.67;5.03;;;;;;;;;;5030587;28;20476;-66
2022/09/04 00:20:46;;;;;;;10.07;4.97;;;;;;;;;;5033739;28;20194;-66
2022/09/04 00:23:17;;;;;;;6.40;4.03;;;;;;;;;;5047945;28;20443;-66
2022/09/04 00:25:43;;;;;;;8.23;4.23;;;;;;;;;;5045771;28;20198;-66
2022/09/04 00:28:18;;;;;;;7.47;4.00;;;;;;;;;;5048146;28;20654;-67
2022/09/04 00:30:49;;;;;;;7.33;4.13;;;;;;;;;;5007460;28;20261;-66
2022/09/04 00:33:22;;;;;;;6.10;3.50;;;;;;;;;;5045593;28;20194;-66
2022/09/04 00:35:50;;;;;;;7.37;4.00;;;;;;;;;;5049253;28;20182;-66
2022/09/04 00:38:47;;;;;;;6.77;3.43;;;;;;;;;;5048600;28;20694;-66
2022/09/04 00:41:33;;;;;;;9.03;4.13;;;;;;;;;;5045622;28;20186;-66
2022/09/04 00:44:12;;;;;;;6.83;4.20;;;;;;;;;;5030959;28;20498;-66
2022/09/04 00:46:46;;;;;;;7.83;3.83;;;;;;;;;;5030326;28;20284;-68
2022/09/04 00:49:19;;;;;;;7.67;3.93;;;;;;;;;;5037925;28;20463;-66
2022/09/04 00:51:52;;;;;;;7.50;3.80;;;;;;;;;;5030053;28;20190;-66
2022/09/04 00:54:40;;;;;;;7.10;4.37;;;;;;;;;;5031326;28;20252;-66
2022/09/04 00:57:12;;;;;;;5.20;3.47;;;;;;;;;;5032781;28;20222;-66
2022/09/04 00:59:48;;;;;;;7.33;4.10;;;;;;;;;;5030155;28;20179;-67
2022/09/04 01:02:15;;;;;;;8.77;4.10;;;;;;;;;;5045067;28;20445;-66
2022/09/04 01:04:42;;;;;;;8.77;3.87;;;;;;;;;;5045176;28;20276;-66
2022/09/04 01:07:22;;;;;;;6.73;3.90;;;;;;;;;;5031276;28;20237;-66
2022/09/04 01:09:55;;;;;;;6.97;3.77;;;;;;;;;;5047932;28;20195;-66
2022/09/04 01:12:25;;;;;;;8.07;3.43;;;;;;;;;;5047013;28;20596;-66
2022/09/04 01:15:14;;;;;;;5.57;3.50;;;;;;;;;;5030452;28;20191;-66
2022/09/04 01:18:05;;;;;;;7.87;3.80;;;;;;;;;;5045572;28;20202;-66
2022/09/04 01:20:50;;;;;;;5.60;3.60;;;;;;;;;;5030685;28;21012;-66
2022/09/04 01:23:36;;;;;;;6.57;3.93;;;;;;;;;;5045089;28;20444;-66
2022/09/04 01:26:06;;;;;;;9.87;3.60;;;;;;;;;;5047505;28;20449;-66
2022/09/04 01:28:33;;;;;;;7.23;3.60;;;;;;;;;;5047877;28;20449;-66
2022/09/04 01:31:02;;;;;;;7.80;4.27;;;;;;;;;;5046975;28;20449;-67
2022/09/04 01:33:32;;;;;;;7.80;4.20;;;;;;;;;;5047648;28;20483;-66
2022/09/04 01:35:59;;;;;;;8.93;4.50;;;;;;;;;;5037239;28;20460;-67
2022/09/04 01:38:32;;;;;;;10.97;4.10;;;;;;;;;;5046418;28;20241;-66
2022/09/04 01:41:17;;;;;;;6.73;3.87;;;;;;;;;;5047401;28;20476;-66
2022/09/04 01:43:44;;;;;;;6.57;3.93;;;;;;;;;;5035196;28;20229;-66
2022/09/04 01:46:24;;;;;;;10.27;4.30;;;;;;;;;;5047657;28;20548;-66
2022/09/04 01:48:54;;;;;;;9.00;4.30;;;;;;;;;;5027051;28;20956;-66
2022/09/04 01:51:32;;;;;;;11.27;4.20;;;;;;;;;;5030506;28;20970;-67
2022/09/04 01:54:03;;;;;;;9.73;4.00;;;;;;;;;;5047380;28;20453;-66
2022/09/04 01:56:51;;;;;;;8.90;4.43;;;;;;;;;;5033488;28;20785;-66
2022/09/04 01:59:50;;;;;;;6.97;4.10;;;;;;;;;;5029770;28;20828;-66
2022/09/04 02:02:32;;;;;;;5.93;3.40;;;;;;;;;;4993106;28;20452;-66
2022/09/04 02:05:03;;;;;;;5.83;4.10;;;;;;;;;;5026225;28;20477;-66
2022/09/04 02:07:40;;;;;;;7.53;4.40;;;;;;;;;;5030309;28;20932;-66
2022/09/04 02:10:11;;;;;;;9.10;3.90;;;;;;;;;;5047821;28;20455;-67
2022/09/04 02:12:46;;;;;;;7.00;4.27;;;;;;;;;;5015594;28;20779;-66
2022/09/04 02:15:22;;;;;;;8.53;4.50;;;;;;;;;;5050287;28;20449;-66
2022/09/04 02:18:10;;;;;;;7.93;4.40;;;;;;;;;;5050934;28;21152;-66
2022/09/04 02:20:38;;;;;;;6.73;4.80;;;;;;;;;;5050789;28;20449;-66
2022/09/04 02:23:12;;;;;;;7.80;4.43;;;;;;;;;;5050720;28;20193;-66
2022/09/04 02:25:42;;;;;;;7.07;5.10;;;;;;;;;;5030082;28;21027;-66
2022/09/04 02:28:18;;;;;;;7.13;4.37;;;;;;;;;;5050649;28;20550;-66
2022/09/04 02:30:55;;;;;;;7.80;4.00;;;;;;;;;;5033933;28;20433;-66
2022/09/04 02:33:27;;;;;;;8.30;4.97;;;;;;;;;;5048552;28;20456;-66
2022/09/04 02:35:58;;;;;;;6.63;4.13;;;;;;;;;;5034192;28;20554;-66
2022/09/04 02:38:29;;;;;;;7.73;4.90;;;;;;;;;;5049237;28;20975;-66
2022/09/04 02:41:05;;;;;;;7.37;4.50;;;;;;;;;;5016567;28;20532;-66
2022/09/04 02:43:44;;;;;;;7.40;4.30;;;;;;;;;;5049718;28;20289;-66
2022/09/04 02:46:23;;;;;;;7.60;4.43;;;;;;;;;;5033760;28;20437;-66
2022/09/04 02:48:56;;;;;;;9.73;5.17;;;;;;;;;;5021572;28;20472;-66
2022/09/04 02:51:41;;;;;;;7.57;4.07;;;;;;;;;;5051090;28;20430;-67
2022/09/04 02:54:25;;;;;;;6.60;3.43;;;;;;;;;;5050565;28;20449;-67
2022/09/04 02:56:51;;;;;;;7.23;4.30;;;;;;;;;;5028189;28;20869;-66
2022/09/04 02:59:21;;;;;;;7.17;4.30;;;;;;;;;;5050508;28;20449;-66
2022/09/04 03:01:52;;;;;;;9.57;4.53;;;;;;;;;;5050978;28;20921;-66
2022/09/04 03:04:26;;;;;;;9.13;4.70;;;;;;;;;;5036854;28;21014;-66
2022/09/04 03:07:11;;;;;;;7.03;4.40;;;;;;;;;;5031955;28;20461;-66
2022/09/04 03:09:39;;;;;;;9.53;4.77;;;;;;;;;;5032792;28;20457;-66
2022/09/04 03:12:25;;;;;;;9.43;5.40;;;;;;;;;;5039116;28;20448;-66
2022/09/04 03:15:09;;;;;;;7.07;4.73;;;;;;;;;;5047820;28;20484;-67
2022/09/04 03:17:36;;;;;;;7.23;4.60;;;;;;;;;;5032145;28;20449;-66
2022/09/04 03:20:22;;;;;;;8.57;4.90;;;;;;;;;;5049525;28;20443;-66
2022/09/04 03:22:51;;;;;;;8.53;4.73;;;;;;;;;;5055031;28;20441;-66
2022/09/04 03:25:37;;;;;;;8.33;4.50;;;;;;;;;;5040954;28;20484;-66
2022/09/04 03:28:04;;;;;;;9.27;5.63;;;;;;;;;;5049473;28;20476;-66
2022/09/04 03:30:32;;;;;;;7.60;4.63;;;;;;;;;;5031075;28;21004;-66
2022/09/04 03:33:02;;;;;;;6.37;4.00;;;;;;;;;;5032077;28;20456;-66
2022/09/04 03:35:29;;;;;;;8.33;4.57;;;;;;;;;;5049535;28;20835;-66
2022/09/04 03:37:56;;;;;;;9.17;4.00;;;;;;;;;;5048983;28;21037;-66
2022/09/04 03:40:32;;;;;;;6.77;3.77;;;;;;;;;;5048124;28;20847;-66
2022/09/04 03:43:22;;;;;;;7.63;3.53;;;;;;;;;;5030448;28;20464;-69
2022/09/04 03:45:58;;;;;;;5.50;3.13;;;;;;;;;;5015684;28;20890;-66
2022/09/04 03:48:25;;;;;;;5.83;3.17;;;;;;;;;;5049254;28;20480;-66
2022/09/04 03:51:03;;;;;;;6.00;2.90;;;;;;;;;;5049968;28;20471;-66
2022/09/04 03:53:36;;;;;;;6.17;2.97;;;;;;;;;;5047918;28;20441;-66
2022/09/04 03:56:06;;;;;;;5.80;3.23;;;;;;;;;;5040508;28;20199;-65
2022/09/04 03:58:37;;;;;;;4.87;3.20;;;;;;;;;;5048165;28;20445;-65
2022/09/04 04:01:04;;;;;;;5.80;3.07;;;;;;;;;;5039627;28;20444;-66
2022/09/04 04:03:37;;;;;;;6.67;3.67;;;;;;;;;;5049157;28;20452;-66
2022/09/04 04:06:04;;;;;;;6.13;3.40;;;;;;;;;;5048991;28;20882;-65
2022/09/04 04:08:50;;;;;;;6.40;3.37;;;;;;;;;;5030962;28;20563;-65
2022/09/04 04:11:25;;;;;;;5.33;3.00;;;;;;;;;;5048392;28;20563;-66
2022/09/04 04:14:04;;;;;;;5.77;3.00;;;;;;;;;;5031166;28;20448;-65
2022/09/04 04:16:40;;;;;;;6.40;3.30;;;;;;;;;;5048066;28;20475;-66
2022/09/04 04:19:25;;;;;;;5.67;2.93;;;;;;;;;;5047713;28;20460;-66
2022/09/04 04:21:58;;;;;;;6.40;3.43;;;;;;;;;;5031206;28;20191;-66
2022/09/04 04:24:43;;;;;;;4.67;2.90;;;;;;;;;;5049344;28;20448;-65
2022/09/04 04:27:10;;;;;;;5.00;2.90;;;;;;;;;;5053975;28;20773;-65
2022/09/04 04:29:39;;;;;;;4.67;2.80;;;;;;;;;;5049063;28;20472;-65
2022/09/04 04:32:19;;;;;;;5.73;2.97;;;;;;;;;;5047944;28;20452;-64
2022/09/04 04:34:52;;;;;;;6.20;3.00;;;;;;;;;;5026789;28;20449;-64
2022/09/04 04:37:25;;;;;;;4.80;3.20;;;;;;;;;;5048334;28;20480;-64
2022/09/04 04:40:29;;;;;;;6.47;3.10;;;;;;;;;;5048151;28;20456;-64
2022/09/04 04:42:55;;;;;;;6.63;3.00;;;;;;;;;;4985692;28;20947;-67
2022/09/04 04:45:49;;;;;;;7.27;3.10;;;;;;;;;;5027712;28;20437;-65
2022/09/04 04:48:28;;;;;;;4.60;2.90;;;;;;;;;;5015124;28;20504;-67
2022/09/04 04:51:04;;;;;;;5.20;3.10;;;;;;;;;;5044357;28;20467;-65
2022/09/04 04:53:49;;;;;;;3.73;2.73;;;;;;;;;;5012042;28;20540;-64
2022/09/04 04:56:23;;;;;;;3.80;3.00;;;;;;;;;;5041869;28;20433;-65
2022/09/04 04:59:00;;;;;;;4.17;2.60;;;;;;;;;;5031401;28;20437;-65
2022/09/04 05:01:46;;;;;;;5.90;3.17;;;;;;;;;;5035587;28;20297;-66
2022/09/04 05:04:22;;;;;;;7.63;3.43;;;;;;;;;;5047486;28;20833;-65
2022/09/04 05:06:53;;;;;;;5.00;2.90;;;;;;;;;;5042759;28;20190;-64
2022/09/04 05:09:24;;;;;;;7.10;4.37;;;;;;;;;;5031398;28;20223;-66
2022/09/04 05:11:55;;;;;;;7.07;4.20;;;;;;;;;;5048659;28;20437;-66
2022/09/04 05:15:00;;;;;;;7.17;4.07;;;;;;;;;;5030537;28;20966;-66
2022/09/04 05:17:50;;;;;;;8.27;4.80;;;;;;;;;;4986976;28;20220;-68
2022/09/04 05:20:35;;;;;;;8.50;4.53;;;;;;;;;;4970363;28;20669;-68
2022/09/04 05:23:14;;;;;;;7.27;4.20;;;;;;;;;;5029322;28;20203;-67
2022/09/04 05:25:50;;;;;;;8.20;5.20;;;;;;;;;;5028306;28;20217;-69
2022/09/04 05:28:36;;;;;;;9.10;5.43;;;;;;;;;;5035050;28;20227;-69
2022/09/04 05:31:09;;;;;;;11.80;5.40;;;;;;;;;;5033768;28;20199;-69
2022/09/04 05:33:55;;;;;;;9.50;5.23;;;;;;;;;;5035439;28;20605;-68
2022/09/04 05:36:26;;;;;;;9.23;4.77;;;;;;;;;;5037188;28;21104;-70
2022/09/04 05:38:56;;;;;;;6.97;4.53;;;;;;;;;;5034529;28;20192;-70
2022/09/04 05:41:32;;;;;;;7.00;3.87;;;;;;;;;;5035867;28;20199;-68
2022/09/04 05:44:17;;;;;;;6.70;3.70;;;;;;;;;;5038543;28;20190;-68
2022/09/04 05:46:50;;;;;;;6.87;4.00;;;;;;;;;;5038976;28;20183;-68
2022/09/04 05:49:27;;;;;;;4.97;3.27;;;;;;;;;;5039438;28;20305;-66
2022/09/04 05:52:23;;;;;;;5.97;3.17;;;;;;;;;;5040260;28;20573;-66
2022/09/04 05:55:00;;;;;;;4.70;3.20;;;;;;;;;;5009535;28;20203;-67
2022/09/04 05:57:29;;;;;;;3.37;2.53;;;;;;;;;;5020527;28;20191;-67
2022/09/04 06:00:05;;;;;;;2.83;2.10;;;;;;;;;;5022687;28;20589;-68
2022/09/04 06:02:53;;;;;;;3.10;2.17;;;;;;;;;;5039261;28;20199;-68
2022/09/04 06:05:23;;;;;;;2.50;1.70;;;;;;;;;;5043005;28;20253;-66
2022/09/04 06:08:00;;;;;;;2.43;1.50;;;;;;;;;;5036878;28;20261;-70
2022/09/04 06:10:30;;;;;;;3.57;1.63;;;;;;;;;;5039665;28;20194;-71
2022/09/04 06:13:00;;;;;;;1.93;1.50;;;;;;;;;;5038386;28;20201;-69
2022/09/04 06:15:32;;;;;;;3.40;1.17;;;;;;;;;;5039190;28;20290;-69
2022/09/04 06:17:59;;;;;;;1.70;0.70;;;;;;;;;;5019788;28;20272;-70
2022/09/04 06:20:26;;;;;;;2.33;0.60;;;;;;;;;;5035765;28;20183;-69
2022/09/04 06:22:59;;;;;;;0.70;0.57;;;;;;;;;;5048016;28;20188;-68
2022/09/04 06:25:33;;;;;;;0.87;0.60;;;;;;;;;;5052335;28;20205;-71
2022/09/04 06:28:03;;;;;;;4.10;0.90;;;;;;;;;;5014004;28;20198;-66
2022/09/04 06:30:33;;;;;;;2.37;0.70;;;;;;;;;;5037766;28;20190;-66
2022/09/04 06:33:04;;;;;;;2.80;0.63;;;;;;;;;;5006340;28;20190;-67
2022/09/04 06:35:49;;;;;;;1.37;0.90;;;;;;;;;;5039995;28;20206;-66
2022/09/04 06:38:25;;;;;;;2.60;0.60;;;;;;;;;;5033369;28;20198;-69
2022/09/04 06:40:55;;;;;;;1.33;0.60;;;;;;;;;;5038201;28;20635;-67
2022/09/04 06:43:41;;;;;;;3.33;0.60;;;;;;;;;;5033371;28;20750;-66
2022/09/04 06:46:08;;;;;;;1.80;0.70;;;;;;;;;;5036508;28;20210;-68
2022/09/04 06:48:40;;;;;;;1.20;0.60;;;;;;;;;;5038603;28;20207;-69
2022/09/04 06:51:22;;;;;;;2.63;0.57;;;;;;;;;;5018573;28;20187;-70
2022/09/04 06:53:53;;;;;;;2.10;0.60;;;;;;;;;;5024748;28;20191;-66
2022/09/04 06:56:39;;;;;;;1.70;0.50;;;;;;;;;;5036630;28;20206;-68
2022/09/04 06:59:16;;;;;;;2.87;0.60;;;;;;;;;;5034705;28;20194;-69
2022/09/04 07:01:43;;;;;;;0.60;0.40;;;;;;;;;;5020860;28;20290;-69
2022/09/04 07:04:16;;;;;;;0.70;0.40;;;;;;;;;;5035824;28;20271;-70
2022/09/04 07:06:46;;;;;;;2.83;0.70;;;;;;;;;;5035333;28;20719;-69
2022/09/04 07:09:17;;;;;;;1.60;0.50;;;;;;;;;;5036119;28;20229;-70
2022/09/04 07:11:56;;;;;;;7.37;0.90;;;;;;;;;;5018780;28;20282;-69
2022/09/04 07:14:59;;;;;;;2.20;0.50;;;;;;;;;;5036152;28;20698;-69
2022/09/04 07:17:30;;;;;;;1.00;0.60;;;;;;;;;;4977917;28;20959;-70
2022/09/04 07:20:24;;;;;;;0.70;0.40;;;;;;;;;;5022642;28;20566;-69
2022/09/04 07:23:10;;;;;;;4.13;0.60;;;;;;;;;;5017210;28;20199;-71
2022/09/04 07:25:44;;;;;;;3.17;0.53;;;;;;;;;;5047918;28;20197;-68
2022/09/04 07:28:18;;;;;;;3.93;0.70;;;;;;;;;;5015815;28;20233;-71
2022/09/04 07:30:49;;;;;;;1.63;0.50;;;;;;;;;;5029709;28;20206;-73
2022/09/04 07:33:19;;;;;;;2.13;0.50;;;;;;;;;;5001725;28;20191;-70
2022/09/04 07:35:49;;;;;;;0.83;0.53;;;;;;;;;;5039445;28;20241;-72
2022/09/04 07:38:34;;;;;;;2.13;0.60;;;;;;;;;;5047458;28;20198;-70
2022/09/04 07:41:08;;;;;;;2.47;0.67;;;;;;;;;;5049067;28;20214;-69
2022/09/04 07:43:41;;;;;;;4.20;0.63;;;;;;;;;;5047646;28;20278;-69
2022/09/04 07:46:11;;;;;;;1.70;0.40;;;;;;;;;;5024335;28;20188;-70
2022/09/04 07:48:54;;;;;;;1.13;0.60;;;;;;;;;;5031429;28;20206;-69
2022/09/04 07:51:24;;;;;;;2.07;0.43;;;;;;;;;;5031639;28;20187;-70
2022/09/04 07:53:58;;;;;;;1.03;0.40;;;;;;;;;;5031369;28;20193;-69
2022/09/04 07:56:44;;;;;;;1.80;0.40;;;;;;;;;;5049468;28;20209;-70
2022/09/04 07:59:26;;;;;;;0.50;0.33;;;;;;;;;;5049365;28;20190;-71
2022/09/04 08:01:53;;;;;;;1.57;0.37;;;;;;;;;;5046423;28;20195;-70
2022/09/04 08:04:23;;;;;;;2.00;0.43;;;;;;;;;;5048880;28;20230;-70
2022/09/04 08:06:55;;;;;;;0.87;0.43;;;;;;;;;;5030376;28;20195;-70
2022/09/04 08:09:42;;;;;;;0.90;0.53;;;;;;;;;;5031971;28;20215;-71
2022/09/04 08:12:29;;;;;;;1.53;0.57;;;;;;;;;;5051784;28;20650;-70
2022/09/04 08:15:14;;;;;;;1.70;0.50;;;;;;;;;;5044016;28;20191;-70
2022/09/04 08:17:49;;;;;;;2.13;0.50;;;;;;;;;;5024225;28;20705;-71
2022/09/04 08:20:26;;;;;;;1.03;0.47;;;;;;;;;;5016740;28;20197;-70
2022/09/04 08:23:00;;;;;;;1.13;0.33;;;;;;;;;;5038673;28;20208;-67
2022/09/04 08:25:28;;;;;;;1.47;0.33;;;;;;;;;;5030671;28;20934;-68
2022/09/04 08:28:05;;;;;;;0.77;0.40;;;;;;;;;;5015116;28;20202;-68
2022/09/04 08:30:38;;;;;;;0.53;0.50;;;;;;;;;;5043755;28;20243;-68
2022/09/04 08:33:05;;;;;;;3.03;0.50;;;;;;;;;;5031074;28;20183;-67
2022/09/04 08:35:33;;;;;;;1.10;0.50;;;;;;;;;;5037804;28;20242;-68
2022/09/04 08:38:10;;;;;;;1.40;0.40;;;;;;;;;;5014230;28;20210;-68
2022/09/04 08:41:00;;;;;;;1.90;0.40;;;;;;;;;;5054452;28;20285;-67
2022/09/04 08:43:46;;;;;;;0.97;0.40;;;;;;;;;;5029065;28;20226;-67
2022/09/04 08:46:13;;;;;;;1.10;0.50;;;;;;;;;;5048773;28;20194;-68
2022/09/04 08:49:02;;;;;;;1.67;0.50;;;;;;;;;;5034009;28;20210;-68
2022/09/04 08:51:33;;;;;;;3.07;0.47;;;;;;;;;;5036772;28;20705;-67
2022/09/04 08:54:19;;;;;;;1.47;0.40;;;;;;;;;;5045635;28;20241;-67
2022/09/04 08:56:49;;;;;;;3.23;0.60;;;;;;;;;;5039460;28;20187;-67
2022/09/04 08:59:22;;;;;;;1.13;0.50;;;;;;;;;;5028783;28;20261;-69
2022/09/04 09:01:56;;;;;;;1.07;0.60;;;;;;;;;;5047537;28;20225;-68
2022/09/04 09:04:24;;;;;;;3.50;0.57;;;;;;;;;;5043801;28;20708;-68
2022/09/04 09:07:12;;;;;;;1.57;0.70;;;;;;;;;;5048258;28;20201;-68
2022/09/04 09:09:42;;;;;;;1.13;0.50;;;;;;;;;;5047313;28;20767;-65
2022/09/04 09:12:15;;;;;;;1.10;0.45;;;;;;;;;;5041719;28;20922;-65
2022/09/04 09:14:57;;;;;;;1.00;0.43;;;;;;;;;;5043154;28;20191;-65
2022/09/04 09:18:01;;;;;;;0.87;0.40;;;;;;;;;;5046293;28;20548;-64
2022/09/04 09:20:30;;;;;;;2.23;0.50;;;;;;;;;;5005727;28;20285;-65
2022/09/04 09:23:16;;;;;;;1.07;0.50;;;;;;;;;;5046505;28;20186;-64
2022/09/04 09:25:47;;;;;;;0.93;0.40;;;;;;;;;;5049949;28;20743;-66
2022/09/04 09:28:27;;;;;;;0.57;0.33;;;;;;;;;;5047703;28;20191;-64
2022/09/04 09:31:12;;;;;;;0.87;0.40;;;;;;;;;;5044835;28;20218;-64
2022/09/04 09:33:39;;;;;;;4.70;0.50;;;;;;;;;;5040695;28;20308;-64
2022/09/04 09:36:06;;;;;;;1.63;0.57;;;;;;;;;;5044039;28;20663;-65
2022/09/04 09:38:39;;;;;;;1.33;0.47;;;;;;;;;;5050116;28;20270;-64
2022/09/04 09:41:27;;;;;;;2.20;0.60;;;;;;;;;;5035320;28;20187;-65
2022/09/04 09:43:55;;;;;;;0.80;0.40;;;;;;;;;;5032551;28;21003;-65
2022/09/04 09:46:40;;;;;;;1.67;0.40;;;;;;;;;;5042384;28;20218;-65
2022/09/04 09:49:25;;;;;;;1.33;0.50;;;;;;;;;;5049021;28;20289;-65
2022/09/04 09:52:01;;;;;;;1.80;0.50;;;;;;;;;;5015111;28;20708;-66
2022/09/04 09:54:47;;;;;;;1.97;0.60;;;;;;;;;;5048090;28;20193;-65
2022/09/04 09:57:20;;;;;;;3.53;0.40;;;;;;;;;;5052894;28;20191;-70
2022/09/04 10:00:05;;;;;;;0.60;0.50;;;;;;;;;;5048267;28;20195;-68
2022/09/04 10:02:49;;;;;;;2.10;0.60;;;;;;;;;;5043423;28;20764;-67
2022/09/04 10:05:38;;;;;;;1.40;0.50;;;;;;;;;;5048566;28;20340;-66
2022/09/04 10:08:14;;;;;;;0.67;0.40;;;;;;;;;;5051164;28;21008;-68
2022/09/04 10:10:59;;;;;;;0.40;0.40;;;;;;;;;;5050266;28;20260;-69
2022/09/04 10:13:35;;;;;;;2.43;0.60;;;;;;;;;;5045928;28;20978;-69
2022/09/04 10:16:01;;;;;;;1.57;0.70;;;;;;;;;;5049798;28;20205;-69
2022/09/04 10:18:48;;;;;;;0.57;0.57;;;;;;;;;;5050872;28;20183;-69
2022/09/04 10:21:15;;;;;;;1.27;0.60;;;;;;;;;;5032065;28;20203;-68
2022/09/04 10:24:04;;;;;;;0.90;0.30;;;;;;;;;;5050119;28;20194;-68
2022/09/04 10:26:57;;;;;;;3.33;0.70;;;;;;;;;;5028665;28;20195;-69
2022/09/04 10:29:43;;;;;;;0.53;0.40;;;;;;;;;;5049165;28;20219;-54
2022/09/04 10:32:25;;;;;;;1.07;0.47;;;;;;;;;;5048627;28;20191;-66
2022/09/04 10:35:08;;;;;;;0.97;0.40;;;;;;;;;;5030143;28;20197;-73
2022/09/04 10:37:38;;;;;;;2.20;0.40;;;;;;;;;;5044315;28;20199;-72
2022/09/04 10:43:00;;;;;;;0.50;0.40;;;;;;;;;;5049917;28;20244;-72
2022/09/04 10:45:39;;;;;;;2.30;0.40;;;;;;;;;;5047199;28;20218;-71
2022/09/04 10:48:06;;;;;;;4.53;0.70;;;;;;;;;;5017122;28;20908;-73
2022/09/04 10:50:40;;;;;;;0.80;0.40;;;;;;;;;;5049552;28;20305;-74
2022/09/04 10:53:07;;;;;;;0.50;0.40;;;;;;;;;;5032600;28;20226;-69
2022/09/04 10:55:35;;;;;;;0.60;0.50;;;;;;;;;;5048768;28;20210;-68
2022/09/04 10:58:09;;;;;;;0.70;0.47;;;;;;;;;;5048141;28;20334;-68
2022/09/04 11:00:48;;;;;;;0.60;0.40;;;;;;;;;;5048855;28;20273;-68
2022/09/04 11:03:29;;;;;;;1.43;0.53;;;;;;;;;;5037290;28;20248;-68
2022/09/04 11:06:14;;;;;;;0.90;0.40;;;;;;;;;;5031064;28;20234;-67
2022/09/04 11:09:00;;;;;;;1.40;0.50;;;;;;;;;;5049589;28;20183;-66
2022/09/04 11:11:27;;;;;;;1.00;0.40;;;;;;;;;;5048539;28;20249;-71
2022/09/04 11:14:13;;;;;;;1.63;0.50;;;;;;;;;;5049745;28;20206;-65
2022/09/04 11:16:52;;;;;;;0.50;0.50;;;;;;;;;;5043759;28;20183;-66
2022/09/04 11:19:42;;;;;;;0.53;0.40;;;;;;;;;;5025932;28;20194;-64
2022/09/04 11:22:11;;;;;;;0.60;0.30;;;;;;;;;;5044667;28;20573;-65
2022/09/04 11:24:59;;;;;;;0.87;0.40;;;;;;;;;;5042894;28;20294;-64
2022/09/04 11:27:28;;;;;;;2.67;0.33;;;;;;;;;;5045336;28;20676;-64
2022/09/04 11:29:58;;;;;;;3.93;0.50;;;;;;;;;;5042622;28;20474;-64
2022/09/04 11:32:24;;;;;;;1.57;0.53;;;;;;;;;;5023277;28;20195;-65
2022/09/04 11:35:12;;;;;;;0.93;0.40;;;;;;;;;;5043511;28;20183;-65
2022/09/04 11:37:55;;;;;;;1.77;0.40;;;;;;;;;;5043847;28;20272;-67
2022/09/04 11:40:23;;;;;;;1.00;0.40;;;;;;;;;;5044312;28;20252;-66
2022/09/04 11:43:02;;;;;;;0.50;0.40;;;;;;;;;;5044660;28;20193;-65
2022/09/04 11:45:36;;;;;;;1.33;0.57;;;;;;;;;;5043248;28;20206;-67
2022/09/04 11:48:09;;;;;;;0.80;0.40;;;;;;;;;;5044354;28;20769;-67
2022/09/04 11:50:39;;;;;;;0.50;0.37;;;;;;;;;;5042788;28;20206;-69
2022/09/04 11:53:17;;;;;;;1.90;0.40;;;;;;;;;;5024009;28;20211;-66
2022/09/04 11:56:03;;;;;;;1.10;0.40;;;;;;;;;;5010978;28;20321;-65
2022/09/04 11:58:46;;;;;;;1.07;0.60;;;;;;;;;;5040595;28;20230;-65
2022/09/04 12:01:15;;;;;;;0.83;0.50;;;;;;;;;;5042460;28;20195;-65
2022/09/04 12:03:51;;;;;;;1.47;0.60;;;;;;;;;;5042603;28;20593;-65
2022/09/04 12:06:35;;;;;;;3.23;0.47;;;;;;;;;;5024134;28;20227;-65
2022/09/04 12:09:21;;;;;;;0.87;0.50;;;;;;;;;;5044346;28;20205;-65
2022/09/04 12:11:56;;;;;;;2.57;0.40;;;;;;;;;;5047422;28;20191;-65
2022/09/04 12:14:24;;;;;;;1.07;0.33;;;;;;;;;;5046476;28;20187;-66
2022/09/04 12:16:56;;;;;;;0.60;0.40;;;;;;;;;;5047256;28;20229;-65
2022/09/04 12:19:41;;;;;;;1.20;0.50;;;;;;;;;;5040379;28;20834;-65
2022/09/04 12:22:10;;;;;;;0.70;0.30;;;;;;;;;;5043702;28;20186;-65
2022/09/04 12:24:36;;;;;;;0.90;0.47;;;;;;;;;;5028947;28;20780;-65
2022/09/04 12:27:16;;;;;;;0.70;0.33;;;;;;;;;;5047200;28;20222;-67
2022/09/04 12:29:45;;;;;;;0.40;0.37;;;;;;;;;;5047273;28;20738;-65
2022/09/04 12:32:25;;;;;;;0.70;0.50;;;;;;;;;;5047296;28;20210;-65
2022/09/04 12:35:06;;;;;;;5.40;0.73;;;;;;;;;;5046766;28;20201;-65
2022/09/04 12:37:52;;;;;;;1.03;0.40;;;;;;;;;;5020576;28;20271;-65
2022/09/04 12:40:20;;;;;;;0.83;0.53;;;;;;;;;;5040751;28;20200;-65
2022/09/04 12:42:51;;;;;;;0.83;0.50;;;;;;;;;;5042323;28;20199;-65
2022/09/04 12:45:30;;;;;;;1.37;0.40;;;;;;;;;;5006966;28;20191;-67
2022/09/04 12:48:10;;;;;;;1.03;0.40;;;;;;;;;;5042722;28;20554;-67
2022/09/04 12:50:44;;;;;;;0.63;0.37;;;;;;;;;;5021575;28;20219;-68
2022/09/04 12:53:24;;;;;;;3.80;0.73;;;;;;;;;;5040070;28;20552;-66
2022/09/04 12:56:01;;;;;;;1.27;0.50;;;;;;;;;;5043816;28;20189;-67
2022/09/04 12:58:41;;;;;;;1.00;0.50;;;;;;;;;;5038939;28;20202;-69
2022/09/04 13:01:14;;;;;;;1.27;0.50;;;;;;;;;;5038605;28;20684;-68
2022/09/04 13:03:44;;;;;;;0.37;0.30;;;;;;;;;;5040172;28;20183;-67
2022/09/04 13:06:11;;;;;;;0.33;0.30;;;;;;;;;;5032615;28;20219;-67
2022/09/04 13:08:38;;;;;;;0.80;0.50;;;;;;;;;;5015960;28;21328;-66
2022/09/04 13:11:05;;;;;;;1.10;0.80;;;;;;;;;;5033739;28;20229;-68
2022/09/04 13:13:55;;;;;;;1.63;0.50;;;;;;;;;;5034569;28;20206;-65
2022/09/04 13:16:26;;;;;;;0.93;0.40;;;;;;;;;;5036715;28;20697;-66
2022/09/04 13:18:59;;;;;;;0.67;0.37;;;;;;;;;;5017362;28;20194;-67
2022/09/04 13:21:45;;;;;;;0.97;0.70;;;;;;;;;;5030053;28;20196;-64
2022/09/04 13:24:15;;;;;;;1.00;0.50;;;;;;;;;;5031168;28;20670;-65
2022/09/04 13:26:50;;;;;;;0.60;0.60;;;;;;;;;;5035565;28;20276;-65
2022/09/04 13:29:44;;;;;;;0.93;0.43;;;;;;;;;;5029430;28;20276;-64
2022/09/04 13:32:34;;;;;;;0.33;0.30;;;;;;;;;;5029371;28;20195;-64
2022/09/04 13:35:02;;;;;;;2.27;0.43;;;;;;;;;;5023035;28;20275;-64
2022/09/04 13:37:35;;;;;;;0.40;0.40;;;;;;;;;;5022024;28;20254;-65
2022/09/04 13:40:02;;;;;;;1.70;0.30;;;;;;;;;;5034139;28;20176;-64
2022/09/04 13:42:33;;;;;;;0.77;0.30;;;;;;;;;;5037118;28;20187;-66
2022/09/04 13:45:00;;;;;;;0.60;0.30;;;;;;;;;;5032159;28;20204;-64
2022/09/04 13:47:38;;;;;;;1.77;0.40;;;;;;;;;;5030901;28;20195;-65
2022/09/04 13:50:16;;;;;;;0.30;0.30;;;;;;;;;;5014762;28;20566;-66
2022/09/04 13:53:09;;;;;;;0.80;0.50;;;;;;;;;;5031190;28;20416;-65
2022/09/04 13:55:37;;;;;;;0.63;0.30;;;;;;;;;;5022605;28;20288;-66
2022/09/04 13:58:18;;;;;;;0.77;0.33;;;;;;;;;;5031135;28;20220;-64
2022/09/04 14:00:45;;;;;;;1.53;0.40;;;;;;;;;;5031960;28;20288;-65
2022/09/04 14:03:15;;;;;;;1.27;0.37;;;;;;;;;;5027868;28;20292;-64
2022/09/04 14:05:42;;;;;;;0.77;0.30;;;;;;;;;;5016722;28;20233;-63
2022/09/04 14:08:13;;;;;;;0.50;0.40;;;;;;;;;;5013507;28;20196;-65
2022/09/04 14:10:59;;;;;;;1.70;0.40;;;;;;;;;;5018465;28;20214;-64
2022/09/04 14:13:51;;;;;;;0.50;0.20;;;;;;;;;;5038242;28;20179;-65
2022/09/04 14:16:22;;;;;;;0.67;0.63;;;;;;;;;;5018131;28;20781;-66
2022/09/04 14:19:01;;;;;;;0.57;0.40;;;;;;;;;;5038004;28;21172;-65
2022/09/04 14:21:46;;;;;;;1.23;0.40;;;;;;;;;;5037362;28;20191;-65
2022/09/04 14:24:19;;;;;;;0.40;0.40;;;;;;;;;;5038308;28;20199;-65
2022/09/04 14:26:56;;;;;;;0.30;0.30;;;;;;;;;;5019517;28;20198;-65
2022/09/04 14:29:27;;;;;;;0.50;0.30;;;;;;;;;;5034973;28;20199;-65
2022/09/04 14:32:03;;;;;;;0.27;0.23;;;;;;;;;;5038661;28;20227;-65
2022/09/04 14:34:35;;;;;;;0.40;0.30;;;;;;;;;;5032025;28;20222;-66
2022/09/04 14:37:08;;;;;;;1.63;0.43;;;;;;;;;;5035749;28;20195;-65
2022/09/04 14:39:51;;;;;;;0.80;0.30;;;;;;;;;;5036117;28;20909;-66
2022/09/04 14:42:41;;;;;;;0.70;0.40;;;;;;;;;;5020168;28;20217;-66
2022/09/04 14:45:28;;;;;;;0.30;0.27;;;;;;;;;;5023341;28;20653;-65
2022/09/04 14:47:56;;;;;;;1.13;0.53;;;;;;;;;;5036634;28;20203;-64
2022/09/04 14:50:29;;;;;;;1.13;0.50;;;;;;;;;;5039553;28;20299;-64
2022/09/04 14:52:58;;;;;;;1.50;0.60;;;;;;;;;;5018411;28;20278;-65
2022/09/04 14:55:26;;;;;;;0.80;0.47;;;;;;;;;;5019800;28;20789;-64
2022/09/04 14:58:23;;;;;;;0.40;0.37;;;;;;;;;;5049474;28;20187;-65
2022/09/04 15:00:59;;;;;;;1.73;0.47;;;;;;;;;;5032598;28;20209;-63
2022/09/04 15:03:45;;;;;;;1.10;0.50;;;;;;;;;;5036281;28;20245;-65
2022/09/04 15:06:14;;;;;;;0.73;0.40;;;;;;;;;;5030810;28;20240;-64
2022/09/04 15:08:43;;;;;;;1.63;0.40;;;;;;;;;;5045204;28;20570;-65
2022/09/04 15:11:12;;;;;;;0.43;0.40;;;;;;;;;;5027182;28;20219;-65
2022/09/04 15:13:51;;;;;;;1.90;0.50;;;;;;;;;;5028514;28;20972;-65
2022/09/04 15:16:21;;;;;;;0.70;0.50;;;;;;;;;;5046076;28;20984;-65
2022/09/04 15:18:54;;;;;;;1.63;0.60;;;;;;;;;;5048180;28;20182;-65
2022/09/04 15:21:42;;;;;;;1.70;0.40;;;;;;;;;;5038844;28;20205;-65
2022/09/04 15:24:17;;;;;;;1.00;0.40;;;;;;;;;;5048086;28;20186;-65
2022/09/04 15:26:50;;;;;;;0.97;0.50;;;;;;;;;;5030673;28;20240;-65
2022/09/04 15:29:19;;;;;;;1.63;0.30;;;;;;;;;;5030526;28;20470;-65
2022/09/04 15:31:46;;;;;;;1.23;0.70;;;;;;;;;;5047692;28;20203;-65
2022/09/04 15:34:20;;;;;;;0.80;0.60;;;;;;;;;;5030951;28;20266;-66
2022/09/04 15:36:47;;;;;;;2.00;0.50;;;;;;;;;;5030298;28;20290;-64
2022/09/04 15:39:22;;;;;;;0.73;0.40;;;;;;;;;;5049975;28;20237;-64